createdAt,value
2023-04-17T00:00:31.112Z,31.90
2023-04-17T00:03:22.574Z,35.10
2023-04-17T00:05:56.757Z,39.90
2023-04-17T00:08:28.558Z,37.60
2023-04-17T00:11:07.998Z,35.10
2023-04-17T00:13:40.709Z,32.50
2023-04-17T00:16:13.816Z,35.00
2023-04-17T00:18:45.710Z,40.00
2023-04-17T00:21:17.876Z,28.90
2023-04-17T00:23:49.620Z,38.90
2023-04-17T00:26:21.478Z,36.60
2023-04-17T00:28:53.922Z,34.40
2023-04-17T00:31:26.173Z,23.10
2023-04-17T00:33:59.049Z,37.00
2023-04-17T00:36:32.632Z,35.60
2023-04-17T00:39:04.363Z,33.10
2023-04-17T00:41:36.160Z,37.50
2023-04-17T00:44:08.811Z,34.60
2023-04-17T00:46:41.575Z,32.70
2023-04-17T00:49:14.075Z,35.10
2023-04-17T00:51:47.062Z,38.30
2023-04-17T00:54:20.553Z,35.70
2023-04-17T00:56:56.518Z,41.80
2023-04-17T00:59:29.411Z,37.20
2023-04-17T01:02:02.327Z,41.90
2023-04-17T01:04:34.756Z,41.90
2023-04-17T01:07:07.357Z,36.60
2023-04-17T01:09:39.613Z,33.20
2023-04-17T01:12:22.198Z,46.40
2023-04-17T01:14:55.194Z,41.00
2023-04-17T01:17:27.673Z,45.20
2023-04-17T01:20:00.297Z,41.30
2023-04-17T01:25:02.805Z,36.80
2023-04-17T01:27:39.807Z,36.80
2023-04-17T01:30:14.844Z,40.20
2023-04-17T01:32:54.411Z,38.50
2023-04-17T01:35:26.748Z,43.40
2023-04-17T01:40:30.546Z,36.80
2023-04-17T01:43:03.102Z,40.80
2023-04-17T01:45:34.933Z,41.90
2023-04-17T01:48:07.643Z,41.60
2023-04-17T01:50:39.417Z,45.30
2023-04-17T01:53:11.111Z,41.60
2023-04-17T01:55:42.783Z,43.90
2023-04-17T01:58:14.532Z,37.90
2023-04-17T02:00:48.220Z,43.00
2023-04-17T02:03:20.393Z,40.00
2023-04-17T02:05:53.252Z,40.10
2023-04-17T02:08:25.082Z,41.40
2023-04-17T02:10:59.370Z,42.70
2023-04-17T02:13:31.303Z,42.80
2023-04-17T02:16:03.119Z,40.30
2023-04-17T02:18:34.872Z,40.10
2023-04-17T02:21:06.800Z,44.50
2023-04-17T02:23:40.531Z,45.70
2023-04-17T02:26:12.496Z,41.10
2023-04-17T02:28:46.134Z,43.70
2023-04-17T02:31:18.147Z,40.70
2023-04-17T02:33:50.710Z,41.50
2023-04-17T02:36:22.839Z,25.70
2023-04-17T02:38:54.872Z,44.80
2023-04-17T02:41:26.600Z,34.80
2023-04-17T02:43:58.560Z,36.30
2023-04-17T02:46:30.661Z,44.90
2023-04-17T02:49:02.538Z,37.60
2023-04-17T02:51:36.129Z,42.40
2023-04-17T02:54:08.466Z,39.90
2023-04-17T02:56:40.333Z,42.30
2023-04-17T02:59:13.865Z,37.60
2023-04-17T03:01:46.628Z,45.30
2023-04-17T03:04:18.743Z,36.30
2023-04-17T03:06:51.501Z,41.70
2023-04-17T03:09:23.773Z,37.20
2023-04-17T03:11:56.692Z,38.50
2023-04-17T03:14:28.865Z,39.30
2023-04-17T03:17:01.011Z,39.30
2023-04-17T03:19:33.046Z,39.50
2023-04-17T03:22:05.779Z,27.30
2023-04-17T03:27:08.272Z,35.10
2023-04-17T03:29:43.210Z,35.90
2023-04-17T03:32:15.157Z,33.30
2023-04-17T03:34:47.387Z,36.90
2023-04-17T03:37:19.413Z,24.30
2023-04-17T03:39:51.382Z,39.70
2023-04-17T03:42:23.208Z,34.30
2023-04-17T03:44:56.125Z,23.80
2023-04-17T03:47:28.060Z,36.70
2023-04-17T03:50:01.444Z,39.70
2023-04-17T03:52:36.500Z,31.50
2023-04-17T03:55:10.555Z,37.10
2023-04-17T03:57:42.752Z,37.00
2023-04-17T04:00:16.239Z,35.50
2023-04-17T04:02:51.710Z,33.00
2023-04-17T04:05:30.217Z,33.10
2023-04-17T04:08:03.075Z,35.10
2023-04-17T04:10:46.892Z,35.70
2023-04-17T04:13:23.041Z,37.70
2023-04-17T04:15:58.991Z,37.80
2023-04-17T04:18:32.926Z,36.90
2023-04-17T04:21:05.824Z,36.80
2023-04-17T04:23:41.233Z,36.80
2023-04-17T04:26:13.578Z,34.50
2023-04-17T04:28:49.858Z,36.60
2023-04-17T04:31:26.488Z,31.70
2023-04-17T04:33:59.023Z,39.50
2023-04-17T04:36:36.166Z,35.50
2023-04-17T04:39:20.650Z,36.10
2023-04-17T04:41:54.121Z,36.50
2023-04-17T04:44:27.450Z,34.50
2023-04-17T04:47:01.684Z,36.80
2023-04-17T04:49:33.899Z,34.80
2023-04-17T04:52:06.671Z,35.40
2023-04-17T04:54:38.770Z,37.80
2023-04-17T04:57:10.688Z,37.80
2023-04-17T04:59:42.420Z,29.30
2023-04-17T05:02:34.669Z,43.40
2023-04-17T05:05:09.975Z,39.30
2023-04-17T05:07:42.264Z,41.10
2023-04-17T05:10:18.047Z,42.30
2023-04-17T05:12:55.396Z,43.80
2023-04-17T05:15:27.896Z,44.20
2023-04-17T05:18:00.432Z,43.40
2023-04-17T05:20:33.229Z,44.90
2023-04-17T05:23:05.900Z,45.50
2023-04-17T05:28:10.647Z,47.00
2023-04-17T05:30:43.433Z,45.20
2023-04-17T05:33:27.561Z,46.70
2023-04-17T05:36:03.107Z,44.90
2023-04-17T05:38:37.228Z,42.90
2023-04-17T05:41:11.723Z,44.50
2023-04-17T05:43:43.879Z,44.30
2023-04-17T05:46:17.581Z,44.50
2023-04-17T05:51:22.781Z,46.90
2023-04-17T05:53:54.780Z,43.50
2023-04-17T05:56:26.522Z,49.20
2023-04-17T05:58:58.578Z,45.40
2023-04-17T06:01:32.589Z,40.20
2023-04-17T06:04:04.687Z,46.00
2023-04-17T06:06:37.442Z,44.50
2023-04-17T06:09:11.244Z,51.40
2023-04-17T06:11:43.650Z,47.20
2023-04-17T06:14:15.882Z,46.20
2023-04-17T06:16:48.305Z,45.20
2023-04-17T06:19:22.493Z,49.60
2023-04-17T06:21:54.546Z,48.00
2023-04-17T06:24:26.671Z,31.60
2023-04-17T06:26:59.981Z,49.10
2023-04-17T06:29:32.088Z,44.00
2023-04-17T06:32:04.039Z,44.60
2023-04-17T06:34:38.176Z,48.30
2023-04-17T06:37:15.634Z,39.80
2023-04-17T06:39:47.829Z,41.00
2023-04-17T06:42:20.528Z,44.10
2023-04-17T06:44:57.214Z,47.40
2023-04-17T06:47:29.266Z,44.60
2023-04-17T06:50:01.524Z,41.00
2023-04-17T06:52:33.475Z,47.60
2023-04-17T06:55:05.844Z,46.70
2023-04-17T06:57:39.237Z,43.30
2023-04-17T07:00:14.041Z,43.00
2023-04-17T07:02:46.436Z,40.60
2023-04-17T07:05:19.033Z,39.20
2023-04-17T07:07:50.890Z,31.90
2023-04-17T07:10:22.803Z,28.10
2023-04-17T07:12:55.169Z,44.50
2023-04-17T07:15:30.445Z,36.10
2023-04-17T07:18:02.468Z,40.80
2023-04-17T07:20:34.504Z,39.60
2023-04-17T07:23:06.383Z,39.80
2023-04-17T07:25:38.469Z,38.80
2023-04-17T07:28:10.859Z,36.70
2023-04-17T07:30:43.287Z,40.60
2023-04-17T07:33:15.228Z,39.00
2023-04-17T07:35:47.222Z,34.70
2023-04-17T07:38:19.122Z,20.90
2023-04-17T07:40:50.921Z,34.30
2023-04-17T07:43:22.808Z,34.70
2023-04-17T07:45:55.005Z,33.60
2023-04-17T07:48:27.304Z,35.70
2023-04-17T07:51:02.139Z,29.50
2023-04-17T07:53:36.004Z,35.10
2023-04-17T07:56:08.335Z,36.20
2023-04-17T07:58:40.148Z,36.30
2023-04-17T08:01:12.309Z,31.50
2023-04-17T08:03:45.423Z,34.10
2023-04-17T08:06:17.507Z,37.40
2023-04-17T08:08:49.730Z,35.10
2023-04-17T08:11:22.306Z,37.30
2023-04-17T08:13:54.960Z,33.60
2023-04-17T08:16:26.725Z,31.00
2023-04-17T08:18:58.591Z,26.20
2023-04-17T08:21:31.064Z,32.80
2023-04-17T08:24:05.928Z,30.60
2023-04-17T08:26:38.004Z,35.50
2023-04-17T08:29:09.969Z,33.70
2023-04-17T08:31:41.971Z,33.20
2023-04-17T08:34:15.518Z,34.30
2023-04-17T08:36:47.980Z,35.20
2023-04-17T08:39:19.889Z,32.90
2023-04-17T08:42:00.280Z,33.60
2023-04-17T08:44:33.185Z,34.60
2023-04-17T08:49:37.194Z,32.80
2023-04-17T08:52:09.793Z,35.50
2023-04-17T08:57:12.770Z,35.50
2023-04-17T08:59:47.048Z,32.60
2023-04-17T09:02:19.051Z,31.50
2023-04-17T09:04:53.832Z,31.40
2023-04-17T09:07:31.724Z,36.60
2023-04-17T09:10:03.514Z,35.90
2023-04-17T09:12:41.702Z,33.90
2023-04-17T09:15:19.886Z,36.60
2023-04-17T09:17:51.645Z,38.60
2023-04-17T09:20:23.479Z,32.30
2023-04-17T09:23:02.948Z,34.00
2023-04-17T09:25:34.852Z,32.90
2023-04-17T09:28:14.699Z,37.50
2023-04-17T09:30:46.585Z,34.70
2023-04-17T09:33:20.725Z,31.50
2023-04-17T09:35:52.645Z,32.60
2023-04-17T09:38:39.970Z,39.50
2023-04-17T09:41:25.468Z,29.90
2023-04-17T09:44:01.791Z,26.70
2023-04-17T09:46:46.111Z,32.40
2023-04-17T09:49:21.037Z,33.70
2023-04-17T09:51:53.675Z,33.50
2023-04-17T09:54:26.368Z,33.90
2023-04-17T09:56:58.648Z,40.10
2023-04-17T09:59:31.445Z,44.50
2023-04-17T10:02:04.957Z,38.00
2023-04-17T10:04:37.765Z,31.60
2023-04-17T10:07:10.210Z,30.90
2023-04-17T10:09:45.633Z,30.00
2023-04-17T10:12:19.478Z,33.30
2023-04-17T10:14:53.006Z,30.40
2023-04-17T10:17:31.611Z,33.20
2023-04-17T10:20:30.881Z,28.00
2023-04-17T10:23:22.849Z,30.40
2023-04-17T10:26:43.235Z,29.70
2023-04-17T10:29:15.504Z,30.40
2023-04-17T10:32:29.073Z,35.50
2023-04-17T10:35:03.350Z,35.00
2023-04-17T10:38:05.517Z,29.50
2023-04-17T10:40:39.161Z,29.70
2023-04-17T10:43:14.806Z,32.70
2023-04-17T10:46:03.066Z,29.20
2023-04-17T10:48:38.069Z,28.20
2023-04-17T10:51:43.910Z,31.20
2023-04-17T10:54:16.311Z,30.80
2023-04-17T10:56:48.848Z,32.50
2023-04-17T11:02:04.662Z,31.90
2023-04-17T11:04:37.144Z,31.70
2023-04-17T11:07:08.991Z,20.20
2023-04-17T11:09:42.558Z,32.50
2023-04-17T11:12:14.655Z,34.00
2023-04-17T11:14:46.630Z,26.80
2023-04-17T11:17:18.492Z,39.90
2023-04-17T11:19:50.699Z,41.60
2023-04-17T11:22:23.657Z,40.50
2023-04-17T11:24:55.442Z,36.60
2023-04-17T11:27:28.560Z,28.30
2023-04-17T11:30:01.143Z,60.20
2023-04-17T11:32:38.202Z,63.00
2023-04-17T11:35:11.706Z,51.40
2023-04-17T11:38:06.880Z,41.90
2023-04-17T11:40:43.243Z,37.40
2023-04-17T11:43:15.719Z,35.50
2023-04-17T11:45:50.937Z,33.40
2023-04-17T11:48:27.615Z,35.70
2023-04-17T11:51:02.153Z,25.70
2023-04-17T11:53:37.376Z,27.70
2023-04-17T11:56:17.127Z,20.30
2023-04-17T11:58:51.539Z,17.60
2023-04-17T12:01:25.342Z,23.20
2023-04-17T12:03:58.695Z,19.80
2023-04-17T12:06:39.852Z,21.90
2023-04-17T12:09:24.037Z,24.60
2023-04-17T12:11:55.862Z,21.00
2023-04-17T12:14:27.686Z,29.90
2023-04-17T12:17:01.164Z,26.20
2023-04-17T12:19:33.684Z,22.40
2023-04-17T12:22:06.171Z,22.30
2023-04-17T12:24:38.164Z,17.80
2023-04-17T12:27:10.381Z,17.60
2023-04-17T12:29:44.518Z,21.60
2023-04-17T12:32:17.769Z,23.10
2023-04-17T12:34:49.765Z,17.90
2023-04-17T12:37:22.526Z,20.10
2023-04-17T12:42:24.852Z,23.70
2023-04-17T12:44:57.042Z,17.90
2023-04-17T12:47:29.576Z,13.60
2023-04-17T12:52:33.038Z,20.00
2023-04-17T12:55:05.126Z,19.50
2023-04-17T12:57:38.409Z,14.70
2023-04-17T13:00:12.713Z,19.00
2023-04-17T13:02:44.705Z,21.80
2023-04-17T13:05:16.998Z,27.20
2023-04-17T13:07:49.045Z,14.70
2023-04-17T13:10:21.689Z,16.60
2023-04-17T13:12:53.783Z,16.00
2023-04-17T13:17:57.091Z,19.40
2023-04-17T13:20:29.393Z,25.60
2023-04-17T13:23:01.571Z,20.60
2023-04-17T13:25:34.789Z,16.60
2023-04-17T13:28:06.803Z,27.80
2023-04-17T13:30:39.787Z,30.10
2023-04-17T13:33:11.863Z,23.10
2023-04-17T13:35:43.736Z,22.80
2023-04-17T13:38:16.267Z,22.50
2023-04-17T13:40:48.250Z,23.30
2023-04-17T13:43:20.086Z,27.20
2023-04-17T13:45:55.401Z,25.70
2023-04-17T13:48:27.785Z,27.20
2023-04-17T13:50:59.676Z,26.70
2023-04-17T13:53:31.684Z,29.60
2023-04-17T13:56:03.791Z,19.50
2023-04-17T13:58:36.039Z,21.50
2023-04-17T14:01:08.925Z,24.60
2023-04-17T14:03:44.593Z,22.40
2023-04-17T14:06:18.966Z,20.70
2023-04-17T14:08:51.054Z,22.70
2023-04-17T14:11:23.016Z,25.40
2023-04-17T14:13:54.904Z,22.90
2023-04-17T14:16:27.613Z,22.90
2023-04-17T14:19:12.284Z,17.80
2023-04-17T14:21:45.981Z,19.10
2023-04-17T14:24:18.281Z,29.00
2023-04-17T14:26:50.427Z,18.00
2023-04-17T14:29:22.503Z,15.10
2023-04-17T14:31:55.915Z,19.70
2023-04-17T14:34:28.747Z,15.60
2023-04-17T14:37:02.625Z,17.70
2023-04-17T14:39:34.843Z,16.10
2023-04-17T14:42:07.054Z,14.80
2023-04-17T14:44:39.792Z,14.00
2023-04-17T14:47:13.087Z,16.70
2023-04-17T14:49:48.778Z,16.90
2023-04-17T14:52:24.113Z,17.40
2023-04-17T14:54:57.558Z,15.70
2023-04-17T14:57:30.589Z,17.60
2023-04-17T15:00:03.781Z,18.00
2023-04-17T15:02:38.765Z,14.40
2023-04-17T15:05:12.648Z,13.50
2023-04-17T15:07:47.303Z,15.00
2023-04-17T15:10:19.335Z,14.50
2023-04-17T15:12:51.237Z,21.00
2023-04-17T15:15:23.229Z,13.80
2023-04-17T15:17:55.714Z,13.10
2023-04-17T15:20:28.968Z,14.10
2023-04-17T15:23:01.251Z,14.90
2023-04-17T15:25:34.357Z,11.10
2023-04-17T15:28:06.297Z,14.60
2023-04-17T15:30:38.269Z,11.10
2023-04-17T15:33:10.620Z,12.70
2023-04-17T15:35:42.537Z,12.80
2023-04-17T15:38:14.351Z,11.70
2023-04-17T15:40:47.477Z,12.20
2023-04-17T15:43:21.998Z,10.70
2023-04-17T15:45:55.525Z,14.20
2023-04-17T15:48:27.579Z,13.20
2023-04-17T15:51:00.845Z,14.90
2023-04-17T15:53:34.449Z,11.80
2023-04-17T15:56:07.536Z,14.30
2023-04-17T15:58:39.390Z,12.40
2023-04-17T16:01:11.791Z,10.40
2023-04-17T16:03:44.036Z,11.60
2023-04-17T16:06:16.781Z,11.90
2023-04-17T16:08:49.003Z,13.50
2023-04-17T16:11:21.302Z,9.30
2023-04-17T16:13:53.436Z,9.60
2023-04-17T16:16:25.703Z,10.20
2023-04-17T16:18:57.832Z,15.60
2023-04-17T16:21:31.251Z,11.00
2023-04-17T16:24:04.933Z,12.30
2023-04-17T16:26:37.947Z,14.10
2023-04-17T16:29:10.372Z,12.00
2023-04-17T16:31:42.944Z,9.50
2023-04-17T16:34:15.384Z,13.00
2023-04-17T16:36:47.447Z,9.90
2023-04-17T16:39:19.734Z,12.30
2023-04-17T16:41:52.985Z,11.90
2023-04-17T16:44:26.032Z,13.10
2023-04-17T16:47:12.613Z,12.40
2023-04-17T16:49:45.769Z,10.70
2023-04-17T16:52:18.274Z,9.60
2023-04-17T16:54:50.805Z,14.10
2023-04-17T16:57:22.833Z,14.80
2023-04-17T16:59:54.977Z,11.00
2023-04-17T17:02:27.239Z,13.20
2023-04-17T17:04:59.454Z,12.30
2023-04-17T17:07:31.667Z,12.00
2023-04-17T17:10:03.929Z,11.10
2023-04-17T17:12:36.333Z,9.70
2023-04-17T17:15:10.795Z,13.50
2023-04-17T17:17:44.400Z,10.10
2023-04-17T17:20:17.506Z,16.50
2023-04-17T17:22:49.965Z,12.40
2023-04-17T17:25:22.936Z,12.40
2023-04-17T17:27:56.337Z,17.50
2023-04-17T17:30:28.995Z,10.20
2023-04-17T17:33:08.691Z,11.70
2023-04-17T17:35:43.207Z,11.50
2023-04-17T17:38:18.978Z,12.70
2023-04-17T17:40:53.375Z,12.30
2023-04-17T17:43:25.584Z,12.20
2023-04-17T17:45:58.324Z,13.70
2023-04-17T17:48:30.846Z,13.40
2023-04-17T17:51:02.972Z,12.00
2023-04-17T17:53:35.332Z,11.50
2023-04-17T17:56:08.201Z,11.90
2023-04-17T17:58:40.278Z,11.10
2023-04-17T18:01:12.359Z,13.00
2023-04-17T18:03:45.485Z,14.70
2023-04-17T18:06:19.760Z,17.10
2023-04-17T18:08:52.845Z,11.00
2023-04-17T18:11:24.803Z,15.30
2023-04-17T18:13:57.078Z,8.10
2023-04-17T18:16:31.635Z,12.10
2023-04-17T18:19:04.961Z,16.00
2023-04-17T18:21:37.466Z,23.90
2023-04-17T18:24:10.871Z,15.00
2023-04-17T18:26:43.681Z,13.50
2023-04-17T18:29:15.878Z,19.00
2023-04-17T18:31:48.002Z,30.20
2023-04-17T18:34:23.108Z,48.20
2023-04-17T18:36:56.268Z,37.20
2023-04-17T18:39:28.484Z,46.80
2023-04-17T18:42:01.752Z,55.90
2023-04-17T18:44:35.239Z,46.60
2023-04-17T18:47:07.685Z,38.90
2023-04-17T18:49:40.255Z,32.10
2023-04-17T18:52:12.140Z,32.00
2023-04-17T18:54:44.313Z,28.60
2023-04-17T18:57:16.785Z,45.30
2023-04-17T19:02:19.929Z,24.70
2023-04-17T19:07:23.912Z,19.40
2023-04-17T19:09:56.892Z,22.50
2023-04-17T19:12:30.507Z,28.70
2023-04-17T19:15:02.436Z,18.20
2023-04-17T19:17:34.538Z,20.00
2023-04-17T19:20:08.210Z,19.30
2023-04-17T19:22:40.593Z,29.60
2023-04-17T19:25:13.378Z,25.60
2023-04-17T19:30:16.880Z,23.60
2023-04-17T19:32:49.154Z,29.70
2023-04-17T19:35:21.512Z,26.60
2023-04-17T19:37:53.790Z,30.30
2023-04-17T19:40:26.238Z,24.70
2023-04-17T19:45:35.820Z,26.50
2023-04-17T19:48:09.077Z,36.70
2023-04-17T19:50:41.285Z,36.70
2023-04-17T19:53:13.165Z,36.10
2023-04-17T19:55:45.348Z,37.70
2023-04-17T19:58:17.889Z,30.50
2023-04-17T20:00:50.247Z,29.50
2023-04-17T20:03:22.365Z,34.30
2023-04-17T20:05:54.994Z,30.90
2023-04-17T20:08:27.406Z,34.80
2023-04-17T20:10:59.268Z,29.50
2023-04-17T20:13:31.311Z,30.70
2023-04-17T20:16:03.094Z,28.90
2023-04-17T20:18:35.168Z,49.20
2023-04-17T20:21:07.484Z,34.90
2023-04-17T20:23:39.698Z,50.80
2023-04-17T20:26:11.782Z,34.80
2023-04-17T20:28:43.748Z,26.30
2023-04-17T20:31:16.004Z,27.10
2023-04-17T20:33:48.008Z,27.80
2023-04-17T20:36:20.225Z,22.80
2023-04-17T20:38:52.727Z,36.60
2023-04-17T20:41:24.747Z,26.00
2023-04-17T20:44:00.936Z,25.30
2023-04-17T20:46:33.021Z,26.40
2023-04-17T20:49:05.061Z,27.30
2023-04-17T20:51:36.909Z,32.20
2023-04-17T20:54:08.764Z,25.60
2023-04-17T20:56:40.926Z,31.50
2023-04-17T20:59:12.762Z,21.60
2023-04-17T21:01:44.895Z,23.80
2023-04-17T21:04:16.933Z,18.70
2023-04-17T21:06:49.944Z,22.20
2023-04-17T21:11:55.360Z,26.60
2023-04-17T21:14:27.984Z,22.70
2023-04-17T21:19:34.849Z,25.70
2023-04-17T21:22:06.669Z,30.60
2023-04-17T21:24:40.957Z,20.00
2023-04-17T21:27:12.843Z,26.40
2023-04-17T21:29:44.634Z,32.40
2023-04-17T21:32:16.421Z,30.80
2023-04-17T21:34:48.161Z,16.60
2023-04-17T21:37:19.930Z,24.60
2023-04-17T21:39:52.096Z,19.60
2023-04-17T21:42:24.061Z,23.50
2023-04-17T21:44:56.249Z,23.10
2023-04-17T21:47:28.006Z,21.70
2023-04-17T21:50:00.510Z,19.80
2023-04-17T21:52:32.328Z,23.80
2023-04-17T21:55:05.624Z,15.40
2023-04-17T21:57:37.486Z,20.70
2023-04-17T22:00:12.620Z,13.30
2023-04-17T22:02:44.812Z,25.90
2023-04-17T22:05:16.954Z,27.90
2023-04-17T22:07:54.996Z,16.00
2023-04-17T22:10:27.499Z,23.20
2023-04-17T22:12:59.751Z,26.20
2023-04-17T22:15:31.864Z,25.40
2023-04-17T22:18:03.693Z,21.30
2023-04-17T22:20:35.463Z,25.80
2023-04-17T22:23:07.862Z,21.30
2023-04-17T22:25:39.546Z,18.70
2023-04-17T22:28:11.383Z,20.60
2023-04-17T22:30:43.394Z,15.70
2023-04-17T22:33:15.541Z,23.10
2023-04-17T22:35:47.387Z,20.40
2023-04-17T22:38:21.101Z,22.30
2023-04-17T22:40:52.964Z,17.70
2023-04-17T22:43:24.749Z,21.90
2023-04-17T22:45:57.343Z,20.70
2023-04-17T22:51:01.096Z,17.80
2023-04-17T22:56:04.912Z,17.10
2023-04-17T22:58:36.807Z,15.70
2023-04-17T23:01:08.805Z,18.00
2023-04-17T23:03:41.184Z,20.20
2023-04-17T23:06:12.941Z,17.80
2023-04-17T23:08:44.828Z,17.40
2023-04-17T23:11:16.719Z,18.70
2023-04-17T23:13:48.555Z,17.50
2023-04-17T23:16:20.858Z,12.60
2023-04-17T23:18:52.683Z,18.40
2023-04-17T23:21:25.310Z,20.20
2023-04-17T23:23:57.769Z,22.60
2023-04-17T23:26:29.915Z,20.10
2023-04-17T23:29:01.692Z,20.80
2023-04-17T23:31:33.599Z,24.00
2023-04-17T23:34:05.473Z,17.70
2023-04-17T23:36:37.410Z,19.40
2023-04-17T23:39:09.389Z,16.70
2023-04-17T23:41:42.810Z,22.40
2023-04-17T23:44:14.902Z,17.80
2023-04-17T23:46:47.019Z,16.00
2023-04-17T23:49:18.849Z,17.10
2023-04-17T23:51:50.571Z,19.70
2023-04-17T23:54:23.534Z,17.80
2023-04-17T23:56:55.694Z,21.70
2023-04-17T23:59:27.703Z,11.70
